Weather History for Galliano, LA

Change the Weather History Date:

Wednesday, June 5, 2013

  Actual Average (KAXO) Record (KAXO)
Temperature  
Mean Temperature 84 °F -  
Max Temperature 89 °F 79 °F 87 °F (2012)
Min Temperature 78 °F 77 °F 73 °F (1997)
Cooling Degree Days 18    
Growing Degree Days 34 (Base 50)    
Moisture  
Dew Point 75 °F    
Average Humidity 77    
Maximum Humidity 87    
Minimum Humidity 63    
Precipitation  
Precipitation 0.10 in - - ()
Sea Level Pressure  
Sea Level Pressure 29.87 in    
Wind  
Wind Speed 8 mph (East)    
Max Wind Speed 14 mph    
Max Gust Speed 21 mph    
Visibility 10 miles    
Events Rain    
Averages and records for this station are not official NWS values.
T = Trace of Precipitation, MM = Missing Value Source: NWS Daily Summary

Daily Weather History Graph

Daily Weather History Graph

Search for Another Location

Airport:

Trip Planner

Search our weather history database for the weather conditions in past years. The results will help you decide how hot, cold, wet, or windy it might be!

Date:

Astronomy

Jun. 05, 2013 Rise Set
Actual Time 6:00 AM CDT 7:58 PM CDT
Civil Twilight 5:33 AM CDT 8:25 PM CDT
Nautical Twilight 5:01 AM CDT 8:58 PM CDT
Astronomical Twilight 4:26 AM CDT 9:32 PM CDT
Moon 3:54 AM CDT (6/5) 5:33 PM CDT (6/5)
Length of Visible Light 14h 51m
Length of Day
13h 57m
Waning Crescent, 8% of the Moon is Illuminated
Jun 5
Waning Crescent
Jun 8
New
Jun 16
First Quarter
Jun 23
Full
Jun 29
Last Quarter

Hourly Weather History & Observations

Time (CDT) Temp. Heat Index Dew Point Humidity Pressure Visibility Wind Dir Wind Speed Gust Speed Precip Events Conditions
12:15 AM 81.5 °F 87.8 °F 75.2 °F 81% 29.91 in 10.0 mi East 6.9 mph - N/A   Scattered Clouds
12:35 AM 81.5 °F 88.0 °F 75.4 °F 82% 29.90 in 10.0 mi East 5.8 mph - N/A   Scattered Clouds
12:55 AM 81.1 °F 87.4 °F 75.4 °F 83% 29.89 in 10.0 mi ESE 5.8 mph - N/A   Clear
1:15 AM 80.6 °F 86.2 °F 75.4 °F 84% 29.89 in 10.0 mi East 6.9 mph - N/A   Clear
1:35 AM 80.8 °F 86.7 °F 75.4 °F 84% 29.88 in 10.0 mi East 5.8 mph - N/A   Scattered Clouds
1:55 AM 80.8 °F 86.7 °F 75.4 °F 84% 29.88 in 10.0 mi ESE 6.9 mph - N/A   Scattered Clouds
2:15 AM 81.5 °F 87.8 °F 75.2 °F 81% 29.88 in 10.0 mi ESE 9.2 mph - N/A   Mostly Cloudy
2:35 AM 80.8 °F 86.5 °F 75.2 °F 83% 29.87 in 10.0 mi ESE 6.9 mph - N/A   Scattered Clouds
2:55 AM 80.1 °F 85.1 °F 75.2 °F 85% 29.87 in 10.0 mi ESE 5.8 mph - N/A   Clear
3:15 AM 80.1 °F 84.9 °F 74.8 °F 84% 29.87 in 10.0 mi ESE 5.8 mph - N/A   Clear
3:35 AM 79.9 °F - 74.8 °F 85% 29.87 in 10.0 mi ESE 4.6 mph - N/A   Scattered Clouds
3:55 AM 80.1 °F 84.8 °F 74.7 °F 83% 29.87 in 10.0 mi East 4.6 mph - N/A   Mostly Cloudy
4:15 AM 80.1 °F 84.9 °F 74.8 °F 84% 29.87 in 10.0 mi ESE 5.8 mph - N/A   Mostly Cloudy
4:35 AM 80.2 °F 85.5 °F 75.2 °F 85% 29.87 in 10.0 mi ESE 5.8 mph - N/A   Mostly Cloudy
4:55 AM 80.1 °F 85.1 °F 75.0 °F 85% 29.87 in 10.0 mi ESE 5.8 mph - N/A   Mostly Cloudy
5:15 AM 79.9 °F - 74.3 °F 83% 29.87 in 10.0 mi East 5.8 mph - N/A   Scattered Clouds
5:35 AM 79.3 °F - 74.5 °F 85% 29.87 in 10.0 mi ESE 4.6 mph - N/A   Clear
5:55 AM 78.8 °F - 74.7 °F 87% 29.88 in 10.0 mi East 5.8 mph - N/A   Scattered Clouds
6:15 AM 79.3 °F - 74.5 °F 85% 29.88 in 10.0 mi East 6.9 mph - N/A   Scattered Clouds
6:35 AM 80.1 °F 84.8 °F 74.7 °F 83% 29.88 in 10.0 mi East 4.6 mph - N/A   Scattered Clouds
6:55 AM 80.8 °F 86.5 °F 75.0 °F 83% 29.89 in 10.0 mi East 5.8 mph - N/A   Scattered Clouds
7:15 AM 81.7 °F 88.3 °F 75.2 °F 81% 29.88 in 10.0 mi East 6.9 mph - N/A   Scattered Clouds
7:35 AM 80.6 °F 86.0 °F 75.0 °F 83% 29.89 in 10.0 mi East 3.5 mph - N/A   Scattered Clouds
7:55 AM 81.7 °F 88.7 °F 76.1 °F 83% 29.89 in 10.0 mi East 4.6 mph - N/A   Scattered Clouds
8:15 AM 84.2 °F 92.3 °F 75.2 °F 74% 29.90 in 10.0 mi East 9.2 mph - N/A   Scattered Clouds
8:35 AM 84.7 °F 93.2 °F 75.4 °F 73% 29.89 in 10.0 mi East 9.2 mph - N/A   Scattered Clouds
8:55 AM 84.6 °F 93.2 °F 75.6 °F 74% 29.90 in 10.0 mi ENE 11.5 mph 16.1 mph N/A   Mostly Cloudy
9:15 AM 85.5 °F 94.6 °F 75.4 °F 72% 29.90 in 10.0 mi East 12.7 mph - N/A   Scattered Clouds
9:35 AM 86.0 °F 95.1 °F 75.4 °F 70% 29.90 in 10.0 mi East 11.5 mph 17.3 mph N/A   Scattered Clouds
9:55 AM 85.3 °F 94.2 °F 75.2 °F 72% 29.91 in 10.0 mi East 11.5 mph 16.1 mph N/A   Mostly Cloudy
10:15 AM 85.8 °F 94.6 °F 75.0 °F 70% 29.91 in 10.0 mi East 9.2 mph 17.3 mph N/A   Mostly Cloudy
10:35 AM 86.9 °F 96.8 °F 75.6 °F 69% 29.91 in 10.0 mi East 12.7 mph 16.1 mph N/A   Scattered Clouds
10:55 AM 86.9 °F 96.4 °F 75.4 °F 68% 29.91 in 10.0 mi East 11.5 mph 17.3 mph N/A   Clear
11:15 AM 87.8 °F 97.6 °F 75.2 °F 66% 29.90 in 10.0 mi East 13.8 mph - N/A   Clear
11:35 AM 87.3 °F 98.2 °F 76.3 °F 70% 29.91 in 10.0 mi East 13.8 mph 19.6 mph N/A   Clear
11:55 AM 88.0 °F 98.5 °F 75.7 °F 67% 29.91 in 10.0 mi East 9.2 mph - N/A   Mostly Cloudy
12:15 PM 86.9 °F 96.8 °F 75.7 °F 69% 29.91 in 10.0 mi East 10.4 mph - N/A   Overcast
12:35 PM 87.4 °F 98.2 °F 76.3 °F 69% 29.90 in 10.0 mi East 12.7 mph - N/A   Mostly Cloudy
12:55 PM 89.1 °F 100.2 °F 75.7 °F 65% 29.90 in 10.0 mi East 12.7 mph 17.3 mph N/A   Mostly Cloudy
1:15 PM 88.3 °F 97.4 °F 74.5 °F 63% 29.90 in 10.0 mi East 11.5 mph 16.1 mph N/A   Scattered Clouds
1:35 PM 88.2 °F 99.5 °F 76.3 °F 68% 29.89 in 10.0 mi ENE 6.9 mph 18.4 mph N/A   Scattered Clouds
1:55 PM 88.9 °F 100.9 °F 76.5 °F 67% 29.89 in 10.0 mi East 12.7 mph 17.3 mph N/A   Scattered Clouds
2:15 PM 88.5 °F 97.8 °F 74.5 °F 63% 29.88 in 10.0 mi ESE 12.7 mph - N/A   Clear
2:35 PM 88.7 °F 99.3 °F 75.4 °F 65% 29.87 in 10.0 mi East 10.4 mph 18.4 mph N/A   Clear
2:55 PM 88.5 °F 98.8 °F 75.6 °F 65% 29.86 in 10.0 mi East 11.5 mph - N/A   Scattered Clouds
3:15 PM 89.1 °F 100.8 °F 76.3 °F 66% 29.85 in 10.0 mi East 12.7 mph 19.6 mph N/A   Mostly Cloudy
3:35 PM 88.9 °F 98.6 °F 74.7 °F 63% 29.85 in 10.0 mi East 12.7 mph 19.6 mph N/A   Scattered Clouds
3:55 PM 88.0 °F 97.0 °F 74.5 °F 64% 29.85 in 10.0 mi ENE 12.7 mph - N/A   Scattered Clouds
4:15 PM 88.3 °F 97.4 °F 74.5 °F 63% 29.84 in 10.0 mi East 12.7 mph - N/A   Scattered Clouds
4:35 PM 88.2 °F 97.4 °F 74.5 °F 64% 29.84 in 10.0 mi East 11.5 mph 17.3 mph N/A   Scattered Clouds
4:55 PM 84.9 °F 94.5 °F 76.3 °F 75% 29.84 in 7.0 mi East 10.4 mph 17.3 mph N/A Rain Rain
5:15 PM 82.6 °F 90.2 °F 75.9 °F 80% 29.84 in 10.0 mi East 5.8 mph - N/A   Scattered Clouds
5:35 PM 86.0 °F 96.0 °F 76.1 °F 72% 29.82 in 10.0 mi ENE 8.1 mph - N/A   Clear
5:55 PM 86.7 °F 96.4 °F 75.6 °F 69% 29.83 in 10.0 mi East 9.2 mph - N/A   Mostly Cloudy
6:15 PM 84.4 °F 93.1 °F 75.6 °F 75% 29.83 in 10.0 mi East 4.6 mph - N/A   Mostly Cloudy
6:35 PM 85.1 °F 94.5 °F 76.1 °F 74% 29.83 in 10.0 mi East 4.6 mph - N/A   Scattered Clouds
6:55 PM 83.8 °F 91.8 °F 75.2 °F 75% 29.82 in 10.0 mi East 5.8 mph - N/A   Scattered Clouds
7:15 PM 83.3 °F 90.8 °F 75.2 °F 76% 29.82 in 10.0 mi East 5.8 mph - N/A   Clear
7:35 PM 83.3 °F 91.1 °F 75.4 °F 77% 29.83 in 10.0 mi East 8.1 mph - N/A   Scattered Clouds
7:55 PM 82.6 °F 89.1 °F 74.3 °F 76% 29.84 in 10.0 mi East 5.8 mph - N/A   Clear
8:15 PM 82.4 °F 89.0 °F 74.5 °F 77% 29.84 in 10.0 mi East 4.6 mph - N/A   Scattered Clouds
8:35 PM 81.9 °F 88.7 °F 75.4 °F 81% 29.84 in 4.0 mi ESE 9.2 mph 18.4 mph 0.10 in Rain Heavy Rain
8:55 PM 79.7 °F - 75.4 °F 87% 29.83 in 10.0 mi East 6.9 mph - 0.10 in   Scattered Clouds
9:15 PM 78.8 °F - 74.5 °F 87% 29.83 in 10.0 mi East 9.2 mph 18.4 mph N/A   Light Drizzle
9:35 PM 79.3 °F - 74.5 °F 85% 29.82 in 10.0 mi East 10.4 mph 17.3 mph N/A   Scattered Clouds
9:55 PM 79.9 °F - 74.7 °F 84% 29.82 in 10.0 mi East 10.4 mph 20.7 mph N/A   Scattered Clouds
10:15 PM 80.2 °F 85.4 °F 74.8 °F 84% 29.84 in 10.0 mi East 5.8 mph - N/A   Scattered Clouds
10:35 PM 80.2 °F 85.5 °F 75.2 °F 85% 29.85 in 10.0 mi ENE 4.6 mph - N/A   Mostly Cloudy
10:55 PM 80.6 °F 86.2 °F 75.2 °F 84% 29.85 in 10.0 mi East 8.1 mph - N/A   Scattered Clouds
11:15 PM 80.4 °F 85.8 °F 75.2 °F 84% 29.85 in 10.0 mi East 6.9 mph - N/A   Scattered Clouds
11:35 PM 80.4 °F 85.5 °F 74.3 °F 82% 29.84 in 10.0 mi East 6.9 mph 17.3 mph N/A   Scattered Clouds
11:55 PM 80.1 °F 84.6 °F 74.3 °F 82% 29.85 in 10.0 mi ENE 3.5 mph - N/A   Scattered Clouds